KFDR/FDR METAR and TAF weather

Enter ICAO airport designator
Station Type Date Time Source
KFDR METAR 2019/06/20 07:53 UTC NOAA

KFDR 200753Z AUTO 17007KT 10SM CLR 22/20 A2972 RMK AO2 SLP043 T02220200


Station Type Date Time Source
KFDR Decoded METAR 2019/06/20 07:53 UTC NOAA

FREDERICK MUNICIPAL AIRPORT, OK, United States (KFDR) 34-21N 98-59W 377M
Jun 20, 2019 - 03:53 AM EDT / 2019.06.20 0753 UTC
Wind: from the S (170 degrees) at 8 MPH (7 KT):0
Visibility: 10 mile(s):0
Sky conditions: clear
Temperature: 72.0 F (22.2 C)
Dew Point: 68.0 F (20.0 C)
Relative Humidity: 87%
Pressure (altimeter): 29.72 in. Hg (1006 hPa)
ob: KFDR 200753Z AUTO 17007KT 10SM CLR 22/20 A2972 RMK AO2 SLP043 T02220200
cycle: 8

Station Type Date Time Source
KFDR TAF UTC NOAA

Error!

Example: see airport list